Time;durP1;ratioP1;P1;durP2;ratioP2;P2;SDS_P1;SDS_P2;PMS_P1;PMS_P2;Temp;Humidity;BMP_temperature;BMP_pressure;BME280_temperature;BME280_humidity;BME280_pressure;Samples;Min_cycle;Max_cycle;Signal;HPM_P1;HPM_P2
2021/07/01 00:01:46;;;;;;;4.07;2.33;;;;;;;23.41;64.11;100119.28;4976742;28;20033;-71
2021/07/01 00:04:13;;;;;;;4.55;2.58;;;;;;;23.34;64.13;100121.56;4960618;28;20039;-70
2021/07/01 00:06:38;;;;;;;2.38;1.77;;;;;;;23.34;64.13;100125.19;4960513;28;20027;-71
2021/07/01 00:09:04;;;;;;;1.75;1.65;;;;;;;23.29;64.04;100122.13;4976714;28;20101;-71
2021/07/01 00:11:30;;;;;;;4.28;1.98;;;;;;;23.47;63.21;100122.34;4977185;28;20027;-71
2021/07/01 00:13:56;;;;;;;4.63;2.00;;;;;;;23.53;62.41;100121.31;4960799;28;20382;-71
2021/07/01 00:16:22;;;;;;;1.90;1.67;;;;;;;23.52;62.23;100118.94;4960757;28;20038;-71
2021/07/01 00:18:49;;;;;;;1.70;1.40;;;;;;;23.44;62.04;100121.22;4944368;28;20105;-71
2021/07/01 00:21:16;;;;;;;2.40;1.65;;;;;;;23.40;62.19;100116.91;4960366;28;20031;-70
2021/07/01 00:23:42;;;;;;;4.03;1.40;;;;;;;23.37;62.29;100118.59;4960904;28;20070;-71
2021/07/01 00:26:09;;;;;;;2.35;1.90;;;;;;;23.41;62.67;100112.81;4960300;28;20039;-71
2021/07/01 00:28:35;;;;;;;5.80;1.85;;;;;;;23.29;62.83;100119.28;4960459;28;20034;-71
2021/07/01 00:31:01;;;;;;;5.45;2.10;;;;;;;23.32;63.07;100121.97;4976300;28;20043;-71
2021/07/01 00:33:26;;;;;;;1.67;1.52;;;;;;;23.37;63.46;100112.13;4960205;28;20035;-71
2021/07/01 00:35:52;;;;;;;4.82;1.88;;;;;;;23.39;63.47;100112.47;4960465;28;20089;-71
2021/07/01 00:38:17;;;;;;;4.10;1.77;;;;;;;23.38;63.25;100114.50;4960126;28;20091;-71
2021/07/01 00:40:43;;;;;;;4.65;2.00;;;;;;;23.36;63.42;100121.88;4976351;28;20030;-71
2021/07/01 00:43:08;;;;;;;1.65;1.27;;;;;;;23.37;63.60;100112.91;4959956;28;20121;-71
2021/07/01 00:45:34;;;;;;;4.22;1.60;;;;;;;23.36;63.17;100116.22;4960433;28;20035;-71
2021/07/01 00:47:59;;;;;;;2.17;1.42;;;;;;;23.36;62.68;100111.31;4959810;28;20097;-71
2021/07/01 00:50:26;;;;;;;2.65;2.17;;;;;;;23.32;63.20;100115.50;4976018;28;20038;-71
2021/07/01 00:52:51;;;;;;;3.20;1.80;;;;;;;23.24;63.36;100124.25;4959096;28;20030;-71
2021/07/01 00:55:17;;;;;;;3.05;1.75;;;;;;;23.14;63.12;100118.91;4959681;28;20386;-71
2021/07/01 00:57:43;;;;;;;2.95;1.80;;;;;;;23.10;63.30;100110.47;4959730;28;20027;-71
2021/07/01 01:03:03;;;;;;;5.07;2.78;;;;;;;23.07;63.03;100128.44;4961225;28;20034;-71
2021/07/01 01:05:29;;;;;;;5.90;1.50;;;;;;;23.24;62.19;100124.25;4975666;28;20030;-71
2021/07/01 01:07:54;;;;;;;3.08;1.45;;;;;;;23.24;62.21;100129.94;4959449;28;20031;-71
2021/07/01 01:10:20;;;;;;;2.28;1.80;;;;;;;23.15;62.42;100126.97;4959538;28;20031;-70
2021/07/01 01:12:45;;;;;;;2.58;1.40;;;;;;;23.08;62.19;100124.34;4976846;28;20061;-71
2021/07/01 01:15:11;;;;;;;2.35;1.50;;;;;;;23.00;61.71;100122.94;4960021;28;20134;-71
2021/07/01 01:17:37;;;;;;;2.88;1.25;;;;;;;22.97;62.52;100123.84;4960198;28;20045;-70
2021/07/01 01:20:05;;;;;;;2.90;1.48;;;;;;;22.97;62.15;100110.47;4975085;28;20137;-71
2021/07/01 01:22:30;;;;;;;1.65;1.05;;;;;;;22.94;62.52;100113.41;4959313;28;20030;-71
2021/07/01 01:24:56;;;;;;;2.17;1.70;;;;;;;22.99;62.54;100122.16;4959261;28;20037;-71
2021/07/01 01:27:23;;;;;;;1.98;1.30;;;;;;;22.95;62.68;100124.28;4959141;28;20034;-71
2021/07/01 01:29:48;;;;;;;1.55;1.13;;;;;;;22.91;62.40;100119.97;4975979;28;20031;-71
2021/07/01 01:32:14;;;;;;;4.75;1.50;;;;;;;22.88;62.75;100116.00;4976707;28;20031;-71
2021/07/01 01:34:40;;;;;;;3.50;1.40;;;;;;;22.91;62.48;100120.78;4959052;28;20039;-71
2021/07/01 01:37:09;;;;;;;3.58;1.77;;;;;;;22.92;62.82;100125.19;4975538;28;20109;-70
2021/07/01 01:39:34;;;;;;;1.85;1.50;;;;;;;22.82;62.27;100112.09;4958973;28;20038;-71
2021/07/01 01:42:01;;;;;;;3.50;1.50;;;;;;;22.69;61.76;100108.38;4959008;28;20030;-71
2021/07/01 01:44:26;;;;;;;4.40;1.63;;;;;;;22.80;62.48;100113.75;4976541;28;20394;-71
2021/07/01 01:46:52;;;;;;;1.70;1.60;;;;;;;22.78;62.89;100114.22;4974897;28;20023;-71
2021/07/01 01:49:19;;;;;;;4.07;1.52;;;;;;;22.64;62.20;100101.25;4958837;28;20065;-71
2021/07/01 01:51:45;;;;;;;2.75;1.23;;;;;;;22.72;62.41;100108.31;4959098;28;20110;-71
2021/07/01 01:54:11;;;;;;;4.57;1.67;;;;;;;22.73;62.26;100109.09;4958756;28;20133;-71
2021/07/01 01:56:46;;;;;;;3.05;2.03;;;;;;;22.49;62.33;100106.50;4974809;28;20073;-71
2021/07/01 01:59:13;;;;;;;2.05;1.50;;;;;;;22.53;62.79;100116.94;4976045;28;20031;-71
2021/07/01 02:01:39;;;;;;;2.30;1.55;;;;;;;22.57;62.79;100106.31;4958959;28;20030;-71
2021/07/01 02:04:06;;;;;;;4.68;2.20;;;;;;;22.49;61.86;100108.56;4958450;28;20035;-71
2021/07/01 02:06:33;;;;;;;4.57;1.42;;;;;;;22.54;60.12;100113.69;4958435;28;20031;-71
2021/07/01 02:09:03;;;;;;;3.25;1.30;;;;;;;22.58;60.48;100108.69;4976058;28;20042;-71
2021/07/01 02:11:28;;;;;;;2.63;1.65;;;;;;;22.65;61.21;100102.03;4958466;28;20027;-71
2021/07/01 02:13:54;;;;;;;3.90;1.50;;;;;;;22.69;60.85;100109.22;4958920;28;20055;-71
2021/07/01 02:16:20;;;;;;;2.45;1.33;;;;;;;22.74;60.73;100110.69;4975456;28;20070;-71
2021/07/01 02:18:49;;;;;;;4.32;1.70;;;;;;;22.68;58.76;100096.25;4961867;28;20390;-71
2021/07/01 02:21:15;;;;;;;2.10;1.27;;;;;;;22.73;58.65;100109.09;4974355;28;20050;-71
2021/07/01 02:23:40;;;;;;;6.10;1.50;;;;;;;22.81;59.67;100104.03;4958217;28;20496;-71
2021/07/01 02:26:06;;;;;;;1.30;1.20;;;;;;;22.83;59.82;100090.19;4974251;28;20122;-71
2021/07/01 02:28:31;;;;;;;4.97;1.63;;;;;;;22.63;60.49;100093.16;4974204;28;20115;-71
2021/07/01 02:30:57;;;;;;;2.35;1.35;;;;;;;22.66;61.49;100095.13;4958119;28;20121;-71
2021/07/01 02:33:22;;;;;;;2.22;1.48;;;;;;;22.59;61.45;100098.97;4958391;28;20043;-71
2021/07/01 02:35:48;;;;;;;3.58;1.45;;;;;;;22.60;61.73;100105.44;4957983;28;20027;-71
2021/07/01 02:38:14;;;;;;;3.40;1.50;;;;;;;22.52;61.62;100104.00;4974030;28;20039;-71
2021/07/01 02:40:39;;;;;;;2.50;1.60;;;;;;;22.66;61.09;100097.97;4958108;28;20034;-71
2021/07/01 02:43:05;;;;;;;1.70;1.60;;;;;;;22.67;61.01;100108.84;4957909;28;20398;-71
2021/07/01 02:45:30;;;;;;;4.63;1.85;;;;;;;22.71;59.41;100105.91;4958284;28;20043;-71
2021/07/01 02:47:56;;;;;;;4.45;1.50;;;;;;;22.68;60.79;100112.47;4958001;28;20429;-71
2021/07/01 02:50:22;;;;;;;41.28;25.77;;;;;;;22.65;60.68;100110.56;4974076;28;20422;-71
2021/07/01 02:52:47;;;;;;;66.90;45.55;;;;;;;22.61;60.59;100109.84;4958442;28;20397;-71
2021/07/01 02:55:16;;;;;;;13.48;9.27;;;;;;;22.66;60.68;100104.44;4957608;28;20133;-71
2021/07/01 02:57:41;;;;;;;18.02;12.75;;;;;;;22.64;61.01;100117.47;4975233;28;20031;-71
2021/07/01 03:00:09;;;;;;;18.80;16.20;;;;;;;22.61;60.98;100118.34;4956858;28;20038;-71
2021/07/01 03:02:35;;;;;;;47.78;40.92;;;;;;;22.73;60.56;100120.44;4974003;28;20330;-71
2021/07/01 03:05:04;;;;;;;17.30;14.63;;;;;;;22.78;59.19;100110.59;4957619;28;20035;-71
2021/07/01 03:07:30;;;;;;;15.10;10.75;;;;;;;22.65;60.02;100110.56;4957539;28;20023;-71
2021/07/01 03:09:55;;;;;;;16.15;14.45;;;;;;;22.59;59.94;100113.13;4957498;28;20038;-71
2021/07/01 03:12:21;;;;;;;7.88;6.95;;;;;;;22.53;58.73;100111.28;4957700;28;20419;-71
2021/07/01 03:14:47;;;;;;;13.32;8.60;;;;;;;22.30;59.96;100115.94;4975519;28;20034;-71
2021/07/01 03:17:13;;;;;;;9.25;8.35;;;;;;;22.30;60.16;100113.09;4956843;28;20031;-71
2021/07/01 03:19:38;;;;;;;7.20;6.15;;;;;;;22.36;59.92;100113.34;4957287;28;20090;-71
2021/07/01 03:22:06;;;;;;;6.97;4.07;;;;;;;22.33;59.94;100108.59;4973698;28;20111;-72
2021/07/01 03:24:34;;;;;;;3.85;2.90;;;;;;;22.15;59.32;100109.81;4957374;28;20069;-71
2021/07/01 03:27:00;;;;;;;3.72;1.90;;;;;;;22.22;58.86;100118.16;4957508;28;20027;-71
2021/07/01 03:29:29;;;;;;;4.13;2.65;;;;;;;22.18;59.87;100125.16;4957303;28;20389;-70
2021/07/01 03:31:54;;;;;;;2.60;2.40;;;;;;;22.24;60.16;100129.03;4973604;28;20504;-71
2021/07/01 03:34:20;;;;;;;8.30;2.80;;;;;;;22.19;59.97;100129.59;4957260;28;20133;-71
2021/07/01 03:36:45;;;;;;;2.10;1.80;;;;;;;22.25;59.21;100133.47;4957438;28;20114;-71
2021/07/01 03:39:11;;;;;;;3.35;1.33;;;;;;;22.15;55.71;100115.50;4973305;28;20031;-71
2021/07/01 03:41:37;;;;;;;3.47;1.95;;;;;;;22.15;55.06;100121.16;4957170;28;20026;-70
2021/07/01 03:44:08;;;;;;;6.35;1.77;;;;;;;22.25;56.03;100122.13;4957218;28;20038;-71
2021/07/01 03:46:34;;;;;;;2.45;1.77;;;;;;;22.33;56.46;100131.25;4974440;28;20031;-71
2021/07/01 03:49:00;;;;;;;2.53;2.03;;;;;;;22.37;56.29;100126.28;4957118;28;20031;-71
2021/07/01 03:51:25;;;;;;;4.78;2.38;;;;;;;22.35;56.64;100121.06;4957088;28;20034;-71
2021/07/01 03:53:51;;;;;;;4.57;2.00;;;;;;;22.39;56.29;100123.81;4974168;28;20031;-70
2021/07/01 03:56:16;;;;;;;4.90;1.83;;;;;;;22.44;56.66;100132.56;4957301;28;20026;-71
2021/07/01 03:58:42;;;;;;;2.97;1.73;;;;;;;22.58;55.07;100139.09;4957289;28;20121;-71
2021/07/01 04:01:10;;;;;;;3.55;1.52;;;;;;;22.60;55.58;100122.44;4957554;28;20382;-71
2021/07/01 04:03:35;;;;;;;4.35;2.13;;;;;;;23.19;54.62;100129.69;4974616;28;20042;-71
2021/07/01 04:06:02;;;;;;;2.97;1.60;;;;;;;23.82;52.98;100148.09;4957238;28;20035;-71
2021/07/01 04:08:28;;;;;;;2.60;1.52;;;;;;;24.39;48.56;100134.81;4957014;28;20493;-71
2021/07/01 04:10:53;;;;;;;4.70;1.75;;;;;;;24.80;48.49;100139.47;4957136;28;20023;-71
2021/07/01 04:13:19;;;;;;;6.05;1.52;;;;;;;25.37;46.69;100134.53;4956904;28;20117;-71
2021/07/01 04:15:44;;;;;;;2.90;1.80;;;;;;;25.90;44.95;100133.69;4972973;28;20027;-70
2021/07/01 04:18:11;;;;;;;7.03;2.33;;;;;;;26.36;43.55;100131.72;4956853;28;20031;-70
2021/07/01 04:20:38;;;;;;;3.88;1.27;;;;;;;26.86;42.67;100132.44;4972565;28;20053;-71
2021/07/01 04:23:04;;;;;;;2.40;1.45;;;;;;;27.28;41.17;100129.69;4956884;28;20031;-72
2021/07/01 04:25:30;;;;;;;3.10;1.55;;;;;;;27.73;39.58;100124.34;4957265;28;20042;-72
2021/07/01 04:27:56;;;;;;;2.45;1.70;;;;;;;27.36;39.93;100125.22;4958469;28;20027;-71
2021/07/01 04:30:21;;;;;;;3.42;1.40;;;;;;;27.80;38.79;100118.25;4976383;28;20038;-71
2021/07/01 04:32:47;;;;;;;3.60;1.42;;;;;;;28.10;39.12;100114.28;4960097;28;20027;-71
2021/07/01 04:35:12;;;;;;;1.55;1.40;;;;;;;28.50;39.65;100124.56;4976327;28;20043;-71
2021/07/01 04:37:38;;;;;;;3.58;1.85;;;;;;;28.70;39.35;100133.28;4960634;28;20093;-71
2021/07/01 04:40:08;;;;;;;5.13;2.30;;;;;;;28.34;37.66;100127.84;4960325;28;20027;-71
2021/07/01 04:42:35;;;;;;;5.28;2.53;;;;;;;27.97;38.50;100127.25;4959990;28;20034;-71
2021/07/01 04:45:00;;;;;;;4.47;2.22;;;;;;;28.31;38.17;100125.94;4977945;28;20119;-71
2021/07/01 04:47:26;;;;;;;6.13;2.90;;;;;;;28.84;37.51;100131.75;4976270;28;20100;-71
2021/07/01 04:49:51;;;;;;;4.95;2.42;;;;;;;28.63;37.43;100125.06;4959860;28;20034;-71
2021/07/01 04:52:17;;;;;;;11.35;3.13;;;;;;;28.50;37.79;100127.41;4975995;28;20157;-71
2021/07/01 04:54:43;;;;;;;10.13;4.28;;;;;;;28.52;37.29;100127.72;4959782;28;20027;-71
2021/07/01 04:57:08;;;;;;;6.97;3.45;;;;;;;28.78;36.77;100136.56;4959756;28;20023;-72
2021/07/01 04:59:34;;;;;;;3.33;2.17;;;;;;;28.75;37.50;100134.69;4959713;28;20031;-72
2021/07/01 05:01:59;;;;;;;10.95;4.60;;;;;;;29.01;36.85;100134.97;4959598;28;20085;-71
2021/07/01 05:04:25;;;;;;;7.35;2.83;;;;;;;28.78;37.36;100133.72;4959554;28;20038;-72
2021/07/01 05:06:50;;;;;;;5.32;2.67;;;;;;;29.19;36.93;100126.19;4959518;28;20031;-72
2021/07/01 05:09:16;;;;;;;7.00;3.03;;;;;;;28.68;37.60;100126.47;4959489;28;20118;-70
2021/07/01 05:11:41;;;;;;;6.18;2.63;;;;;;;28.80;37.19;100124.63;4959485;28;20070;-70
2021/07/01 05:14:07;;;;;;;8.00;2.78;;;;;;;29.13;36.31;100131.00;4959465;28;20066;-71
2021/07/01 05:16:33;;;;;;;5.22;2.70;;;;;;;29.86;35.49;100128.63;4959291;28;20120;-70
2021/07/01 05:19:01;;;;;;;7.28;2.45;;;;;;;30.19;34.09;100126.25;4976578;28;20051;-72
2021/07/01 05:21:28;;;;;;;10.23;4.70;;;;;;;29.81;35.15;100124.38;4976320;28;20050;-71
2021/07/01 05:23:54;;;;;;;13.63;6.93;;;;;;;29.65;35.82;100128.56;4975584;28;20073;-71
2021/07/01 05:26:19;;;;;;;10.10;5.35;;;;;;;29.34;35.45;100128.25;4959147;28;20031;-71
2021/07/01 05:28:45;;;;;;;8.55;3.72;;;;;;;30.07;34.98;100133.13;4975685;28;20027;-70
2021/07/01 05:31:11;;;;;;;10.63;3.58;;;;;;;30.44;34.19;100126.88;4958580;28;20486;-70
2021/07/01 05:33:37;;;;;;;10.93;3.45;;;;;;;29.99;34.95;100129.09;4959151;28;20034;-72
2021/07/01 05:36:06;;;;;;;5.28;2.20;;;;;;;30.01;35.44;100123.63;4958789;28;20543;-71
2021/07/01 05:38:32;;;;;;;5.30;2.10;;;;;;;30.18;34.74;100121.81;4958915;28;20030;-71
2021/07/01 05:40:58;;;;;;;6.30;2.00;;;;;;;30.46;35.00;100115.66;4975813;28;20103;-72
2021/07/01 05:43:24;;;;;;;3.60;2.00;;;;;;;31.39;33.28;100124.31;4958845;28;20058;-71
2021/07/01 05:45:53;;;;;;;3.58;1.75;;;;;;;30.73;34.96;100120.97;4958851;28;20029;-71
2021/07/01 05:48:19;;;;;;;5.05;2.45;;;;;;;30.40;35.86;100109.06;4958415;28;20030;-72
2021/07/01 05:50:52;;;;;;;15.07;10.07;;;;;;;30.91;34.73;100125.63;4959266;28;20180;-71
2021/07/01 05:53:26;;;;;;;10.68;3.50;;;;;;;31.05;34.39;100126.81;4958932;28;20070;-71
2021/07/01 05:55:52;;;;;;;5.95;2.00;;;;;;;30.90;34.44;100118.31;4974686;28;20030;-71
2021/07/01 05:58:17;;;;;;;3.75;1.85;;;;;;;30.43;35.08;100125.28;4975084;28;20037;-71
2021/07/01 06:00:43;;;;;;;6.63;1.67;;;;;;;30.46;35.00;100127.13;4959127;28;20529;-73
2021/07/01 06:03:09;;;;;;;3.50;1.23;;;;;;;30.52;34.95;100128.81;4974509;28;20474;-71
2021/07/01 06:05:37;;;;;;;5.40;1.80;;;;;;;30.91;34.87;100133.47;4974441;28;20029;-72
2021/07/01 06:08:05;;;;;;;5.13;1.80;;;;;;;30.64;35.48;100132.59;4958605;28;20385;-71
2021/07/01 06:10:32;;;;;;;4.72;1.80;;;;;;;30.96;34.81;100130.66;4958134;28;20027;-71
2021/07/01 06:12:59;;;;;;;3.72;1.55;;;;;;;30.37;35.93;100128.09;4974378;28;20078;-71
2021/07/01 06:15:26;;;;;;;2.85;1.45;;;;;;;31.28;34.42;100122.91;4958502;28;20146;-71
2021/07/01 06:17:52;;;;;;;4.55;1.90;;;;;;;32.17;33.81;100130.66;4958010;28;20034;-71
2021/07/01 06:20:18;;;;;;;4.13;1.13;;;;;;;32.14;32.77;100125.94;4957845;28;20093;-71
2021/07/01 06:22:48;;;;;;;5.53;1.55;;;;;;;30.99;33.70;100131.72;4957986;28;20081;-71
2021/07/01 06:25:14;;;;;;;6.18;1.50;;;;;;;31.17;34.63;100130.59;4958131;28;20093;-71
2021/07/01 06:27:40;;;;;;;5.88;1.70;;;;;;;31.34;33.71;100128.72;4942305;28;20406;-71
2021/07/01 06:30:13;;;;;;;7.82;1.50;;;;;;;32.02;33.16;100142.34;4958753;28;20034;-71
2021/07/01 06:32:45;;;;;;;2.92;1.20;;;;;;;31.93;33.22;100133.91;4958115;28;20382;-71
2021/07/01 06:35:16;;;;;;;8.45;1.80;;;;;;;31.52;33.67;100139.84;4975426;28;20038;-71
2021/07/01 06:37:43;;;;;;;2.83;1.02;;;;;;;32.78;32.33;100144.59;4974315;28;20030;-71
2021/07/01 06:40:10;;;;;;;6.30;1.75;;;;;;;32.68;31.77;100151.88;4958224;28;20385;-71
2021/07/01 06:42:47;;;;;;;4.45;1.45;;;;;;;32.24;32.33;100152.44;4973831;28;20058;-71
2021/07/01 06:45:16;;;;;;;5.80;1.95;;;;;;;32.45;32.48;100145.25;4957866;28;20031;-70
2021/07/01 06:47:47;;;;;;;5.38;1.50;;;;;;;31.97;33.15;100148.06;4974691;28;20055;-71
2021/07/01 06:50:18;;;;;;;4.32;1.30;;;;;;;32.47;32.54;100147.59;4974978;28;20031;-71
2021/07/01 06:52:44;;;;;;;3.47;1.60;;;;;;;32.85;31.78;100120.25;4974521;28;20026;-72
2021/07/01 06:55:15;;;;;;;3.90;1.65;;;;;;;33.19;32.23;100144.22;4958126;28;20041;-71
2021/07/01 06:57:42;;;;;;;7.55;1.38;;;;;;;33.38;31.64;100145.25;4957916;28;20098;-70
2021/07/01 07:00:10;;;;;;;4.65;1.55;;;;;;;33.65;31.52;100137.16;4973998;28;20081;-71
2021/07/01 07:02:36;;;;;;;6.38;2.05;;;;;;;33.31;31.94;100145.00;4957834;28;20056;-70
2021/07/01 07:05:07;;;;;;;5.20;1.70;;;;;;;33.77;31.43;100140.81;4957310;28;20038;-72
2021/07/01 07:07:33;;;;;;;6.82;1.67;;;;;;;32.38;34.76;100142.03;4974354;28;20155;-72
2021/07/01 07:10:03;;;;;;;4.00;1.50;;;;;;;32.84;34.33;100148.28;4957713;28;20065;-70
2021/07/01 07:12:30;;;;;;;9.10;1.77;;;;;;;33.46;33.24;100145.56;4957027;28;20097;-71
2021/07/01 07:14:56;;;;;;;3.13;1.17;;;;;;;34.42;31.56;100143.38;4956930;28;20512;-70
2021/07/01 07:17:29;;;;;;;6.22;1.52;;;;;;;34.22;31.79;100144.47;4957053;28;20104;-70
2021/07/01 07:20:00;;;;;;;10.48;1.67;;;;;;;34.03;32.18;100143.44;4956695;28;20482;-72
2021/07/01 07:22:34;;;;;;;4.40;2.05;;;;;;;33.39;33.40;100143.16;4957253;28;20378;-73
2021/07/01 07:25:01;;;;;;;3.25;1.52;;;;;;;33.61;32.72;100143.22;4972676;28;20073;-71
2021/07/01 07:27:29;;;;;;;4.18;1.70;;;;;;;32.96;33.49;100128.94;4974922;28;20092;-72
2021/07/01 07:29:55;;;;;;;4.20;1.52;;;;;;;33.05;32.90;100133.69;4956965;28;20125;-71
2021/07/01 07:32:26;;;;;;;4.30;1.23;;;;;;;33.96;31.63;100135.34;4957287;28;20113;-70
2021/07/01 07:34:52;;;;;;;5.53;1.60;;;;;;;33.79;31.89;100130.34;4957019;28;20126;-70
2021/07/01 07:37:18;;;;;;;6.10;1.80;;;;;;;32.13;34.22;100112.84;4957122;28;20027;-72
2021/07/01 07:39:45;;;;;;;5.47;2.00;;;;;;;32.88;33.57;100122.09;4956494;28;20462;-70
2021/07/01 07:42:13;;;;;;;4.82;1.60;;;;;;;33.09;33.46;100129.25;4974072;28;20035;-72
2021/07/01 07:44:40;;;;;;;4.80;1.98;;;;;;;34.50;31.45;100129.97;4973779;28;20061;-71
2021/07/01 07:47:09;;;;;;;6.53;1.63;;;;;;;34.02;31.10;100127.47;4972713;28;20026;-70
2021/07/01 07:49:35;;;;;;;4.57;1.80;;;;;;;34.55;31.04;100123.38;4974651;28;20050;-70
2021/07/01 07:52:03;;;;;;;5.05;1.80;;;;;;;34.36;31.48;100123.19;4956902;28;20027;-71
2021/07/01 07:54:33;;;;;;;6.45;1.63;;;;;;;33.57;32.71;100115.94;4956947;28;20093;-70
2021/07/01 07:57:01;;;;;;;5.03;1.70;;;;;;;34.34;31.48;100130.78;4973856;28;20035;-72
2021/07/01 07:59:29;;;;;;;2.90;1.20;;;;;;;33.01;33.47;100118.75;4956757;28;20094;-72
2021/07/01 08:01:58;;;;;;;4.75;1.98;;;;;;;33.24;33.39;100123.25;4957026;28;20493;-71
2021/07/01 08:04:27;;;;;;;7.97;1.90;;;;;;;33.22;32.88;100114.31;4977390;28;20042;-71
2021/07/01 08:06:54;;;;;;;2.45;1.75;;;;;;;33.96;31.70;100118.81;4960779;28;20071;-71
2021/07/01 08:09:26;;;;;;;1.65;1.02;;;;;;;34.49;30.58;100122.63;4976053;28;20031;-72
2021/07/01 08:11:54;;;;;;;4.85;1.88;;;;;;;33.69;31.38;100111.75;4975927;28;20022;-72
2021/07/01 08:14:22;;;;;;;5.43;1.40;;;;;;;33.38;31.50;100116.44;4959878;28;20070;-71
2021/07/01 08:16:48;;;;;;;4.55;1.50;;;;;;;33.35;31.37;100126.13;4975796;28;20027;-71
2021/07/01 08:19:14;;;;;;;4.43;1.95;;;;;;;33.35;31.53;100122.47;4976154;28;20046;-72
2021/07/01 08:21:39;;;;;;;4.68;1.33;;;;;;;33.18;31.26;100131.06;4977502;28;20034;-71
2021/07/01 08:24:09;;;;;;;3.95;1.35;;;;;;;33.41;30.80;100116.72;4944223;28;20042;-71
2021/07/01 08:26:35;;;;;;;4.65;1.42;;;;;;;33.70;30.68;100119.06;4960162;28;20096;-72
2021/07/01 08:29:02;;;;;;;6.22;1.50;;;;;;;34.39;29.40;100121.31;4977711;28;20030;-72
2021/07/01 08:31:29;;;;;;;5.97;1.23;;;;;;;33.16;30.19;100116.41;4976562;28;20110;-71
2021/07/01 08:33:57;;;;;;;4.45;1.52;;;;;;;33.57;29.75;100115.94;4959451;28;20031;-70
2021/07/01 08:36:24;;;;;;;2.60;1.35;;;;;;;34.27;28.96;100126.34;4960128;28;20038;-71
2021/07/01 08:38:55;;;;;;;5.13;1.55;;;;;;;33.79;30.17;100121.69;4959682;28;20109;-70
2021/07/01 08:41:23;;;;;;;3.13;1.48;;;;;;;33.70;29.53;100110.41;4975878;28;20038;-72
2021/07/01 08:43:52;;;;;;;3.28;1.80;;;;;;;33.68;29.24;100121.72;4975736;28;20070;-70
2021/07/01 08:46:23;;;;;;;2.13;1.10;;;;;;;33.40;30.21;100113.03;4977430;28;20023;-70
2021/07/01 08:49:00;;;;;;;6.57;1.60;;;;;;;32.56;31.70;100087.69;4959811;28;20027;-72
2021/07/01 08:51:40;;;;;;;2.15;1.20;;;;;;;32.89;31.59;100109.28;4976899;28;20030;-71
2021/07/01 08:54:36;;;;;;;3.60;1.85;;;;;;;33.26;31.14;100109.09;4977342;28;20034;-71
2021/07/01 08:57:13;;;;;;;7.18;1.65;;;;;;;32.16;33.04;100105.28;4943225;28;20042;-71
2021/07/01 08:59:43;;;;;;;2.80;0.98;;;;;;;32.26;33.03;100104.53;4956636;28;20031;-71
2021/07/01 09:02:10;;;;;;;3.00;1.35;;;;;;;32.80;32.47;100110.28;4959686;28;20521;-72
2021/07/01 09:05:02;;;;;;;4.05;1.67;;;;;;;32.41;33.13;100112.22;4975858;28;20038;-73
2021/07/01 09:07:28;;;;;;;3.13;1.48;;;;;;;33.11;32.58;100109.31;4968082;28;20035;-71
2021/07/01 09:10:03;;;;;;;3.10;1.58;;;;;;;33.40;32.68;100118.81;4959283;28;20057;-70
2021/07/01 09:12:29;;;;;;;5.07;1.77;;;;;;;32.74;33.55;100115.22;4959478;28;20027;-71
2021/07/01 09:15:00;;;;;;;6.20;1.50;;;;;;;32.71;33.28;100116.28;4958297;28;20039;-70
2021/07/01 09:17:28;;;;;;;3.88;1.30;;;;;;;33.28;32.13;100115.09;4975262;28;20031;-72
2021/07/01 09:19:55;;;;;;;5.95;1.48;;;;;;;32.24;35.37;100115.78;4958743;28;20065;-72
2021/07/01 09:22:22;;;;;;;6.30;2.42;;;;;;;31.66;36.19;100092.13;4959558;28;20046;-72
2021/07/01 09:24:52;;;;;;;6.22;1.40;;;;;;;31.95;34.84;100119.78;4959065;28;20035;-72
2021/07/01 09:27:19;;;;;;;5.57;1.83;;;;;;;32.30;35.44;100110.06;4958988;28;20084;-72
2021/07/01 09:29:47;;;;;;;5.88;1.75;;;;;;;31.83;34.63;100100.88;4959545;28;20067;-72
2021/07/01 09:32:19;;;;;;;3.88;1.85;;;;;;;31.97;35.40;100110.66;4976480;28;20027;-72
2021/07/01 09:34:47;;;;;;;7.70;1.45;;;;;;;32.32;34.73;100088.06;4960333;28;20031;-72
2021/07/01 09:37:13;;;;;;;8.65;1.75;;;;;;;31.88;34.46;100119.50;4975652;28;20162;-71
2021/07/01 09:39:39;;;;;;;7.35;1.77;;;;;;;31.71;35.75;100111.50;4958797;28;20041;-72
2021/07/01 09:42:06;;;;;;;3.15;1.40;;;;;;;32.40;34.45;100110.66;4975129;28;20046;-72
2021/07/01 09:44:34;;;;;;;6.53;1.50;;;;;;;32.51;33.71;100130.88;4976231;28;20496;-71
2021/07/01 09:47:05;;;;;;;6.65;1.60;;;;;;;32.48;33.69;100120.38;4974880;28;20110;-72
2021/07/01 09:49:39;;;;;;;9.00;1.85;;;;;;;32.31;32.93;100118.16;4974735;28;20030;-72
2021/07/01 09:52:08;;;;;;;8.27;1.55;;;;;;;32.44;33.01;100108.31;4976190;28;20038;-71
2021/07/01 09:54:37;;;;;;;3.10;1.48;;;;;;;32.70;33.53;100125.44;4958546;28;20035;-72
2021/07/01 09:57:15;;;;;;;1.48;1.10;;;;;;;31.68;35.80;100114.59;4974926;28;20475;-72
2021/07/01 09:59:54;;;;;;;3.38;1.88;;;;;;;32.44;34.28;100109.13;4974946;28;20489;-71
2021/07/01 10:02:21;;;;;;;6.57;2.28;;;;;;;32.05;35.38;100123.25;4943342;28;20038;-71
2021/07/01 10:04:48;;;;;;;3.63;1.42;;;;;;;32.48;32.51;100123.25;4959014;28;20058;-72
2021/07/01 10:07:25;;;;;;;3.83;1.30;;;;;;;32.46;33.81;100111.47;4974690;28;20043;-72
2021/07/01 10:09:56;;;;;;;6.97;1.70;;;;;;;31.97;34.45;100108.56;4976191;28;20423;-71
2021/07/01 10:12:29;;;;;;;3.33;1.40;;;;;;;31.52;35.29;100122.59;4958302;28;20058;-71
2021/07/01 10:15:01;;;;;;;7.43;2.33;;;;;;;31.22;36.89;100122.03;4958175;28;20031;-71
2021/07/01 10:17:28;;;;;;;3.67;1.50;;;;;;;31.92;35.83;100122.94;4958387;28;20062;-69
2021/07/01 10:20:08;;;;;;;3.78;1.60;;;;;;;31.30;36.97;100114.56;4974242;28;20065;-72
2021/07/01 10:22:36;;;;;;;5.80;1.55;;;;;;;31.86;35.95;100128.63;4974274;28;20034;-70
2021/07/01 10:25:03;;;;;;;5.63;1.60;;;;;;;31.80;36.10;100111.34;4958323;28;20039;-72
2021/07/01 10:27:33;;;;;;;5.95;1.90;;;;;;;31.15;37.24;100113.84;4958338;28;20105;-72
2021/07/01 10:30:02;;;;;;;5.35;1.52;;;;;;;31.94;35.95;100117.44;4958872;28;20058;-70
2021/07/01 10:32:41;;;;;;;4.50;1.67;;;;;;;31.96;36.02;100107.00;4974993;28;20439;-70
2021/07/01 10:35:29;;;;;;;6.05;1.90;;;;;;;32.20;36.11;100103.72;4957860;28;20034;-72
2021/07/01 10:37:54;;;;;;;5.45;1.50;;;;;;;31.53;37.41;100091.75;4957766;28;20035;-72
2021/07/01 10:40:20;;;;;;;5.63;2.88;;;;;;;31.06;38.89;100091.06;4973675;28;20038;-71
2021/07/01 10:42:51;;;;;;;4.15;1.55;;;;;;;31.38;37.04;100099.75;4973857;28;20027;-72
2021/07/01 10:45:18;;;;;;;10.43;2.33;;;;;;;30.93;38.18;100105.00;4973225;28;20034;-72
2021/07/01 10:47:43;;;;;;;5.18;1.70;;;;;;;31.42;37.84;100094.53;4957770;28;20027;-72
2021/07/01 10:50:30;;;;;;;4.85;1.30;;;;;;;31.97;37.45;100087.66;4957977;28;20459;-71
2021/07/01 10:52:56;;;;;;;2.85;1.40;;;;;;;31.34;37.19;100081.94;4957496;28;20030;-70
2021/07/01 10:55:23;;;;;;;2.17;1.05;;;;;;;31.22;37.53;100092.53;4958402;28;20045;-71
2021/07/01 10:57:54;;;;;;;7.75;1.95;;;;;;;30.88;39.83;100088.50;4975298;28;20136;-71
2021/07/01 11:00:40;;;;;;;3.67;1.20;;;;;;;31.71;38.69;100088.50;4974841;28;20371;-71
2021/07/01 11:03:11;;;;;;;4.20;1.70;;;;;;;31.37;39.59;100092.41;4959696;28;20026;-73
2021/07/01 11:05:37;;;;;;;8.20;1.88;;;;;;;31.39;39.33;100096.34;4957301;28;20466;-72
2021/07/01 11:08:03;;;;;;;4.05;1.33;;;;;;;31.47;38.78;100085.16;4958033;28;20434;-71
2021/07/01 11:10:34;;;;;;;2.58;1.63;;;;;;;30.93;39.94;100082.03;4974884;28;20037;-71
2021/07/01 11:13:09;;;;;;;4.93;1.52;;;;;;;31.23;40.02;100083.38;4957508;28;20118;-71
2021/07/01 11:15:54;;;;;;;4.78;1.70;;;;;;;31.07;39.86;100092.63;4957295;28;20030;-72
2021/07/01 11:18:51;;;;;;;7.28;1.70;;;;;;;31.62;38.29;100091.56;4957198;28;20126;-72
2021/07/01 11:21:19;;;;;;;5.78;3.08;;;;;;;31.27;39.15;100088.94;4974282;28;20127;-71
2021/07/01 11:23:49;;;;;;;5.72;1.98;;;;;;;31.36;39.06;100091.59;4957813;28;20039;-71
2021/07/01 11:26:36;;;;;;;5.97;1.52;;;;;;;30.68;41.49;100078.63;4974035;28;20038;-72
2021/07/01 11:29:07;;;;;;;4.80;1.63;;;;;;;31.17;40.61;100085.41;4973029;28;20117;-72
2021/07/01 11:31:47;;;;;;;7.20;1.77;;;;;;;31.52;39.55;100088.09;4974469;28;20038;-72